Time;durP1;ratioP1;P1;durP2;ratioP2;P2;SDS_P1;SDS_P2;PMS_P1;PMS_P2;Temp;Humidity;BMP_temperature;BMP_pressure;BME280_temperature;BME280_humidity;BME280_pressure;Samples;Min_cycle;Max_cycle;Signal;HPM_P1;HPM_P2
2023/06/21 00:05:51;;;;;;;6.40;4.90;;;;;;;23.19;100.00;101010.41;20976943;28;20055;-81
2023/06/21 00:16:19;;;;;;;8.75;5.28;;;;;;;23.24;100.00;100994.97;20989477;28;20037;-81
2023/06/21 00:26:41;;;;;;;6.88;4.82;;;;;;;23.26;100.00;100991.31;20976204;28;20151;-81
2023/06/21 00:37:11;;;;;;;8.85;5.38;;;;;;;23.31;100.00;100985.78;20973877;28;20059;-81
2023/06/21 00:47:33;;;;;;;8.68;5.40;;;;;;;23.32;100.00;100968.66;20962909;28;20072;-80
2023/06/21 00:57:40;;;;;;;8.13;5.00;;;;;;;23.34;100.00;100956.91;20982353;28;20846;-81
2023/06/21 01:08:12;;;;;;;8.35;5.00;;;;;;;23.32;100.00;100957.91;20963845;28;20059;-80
2023/06/21 01:18:39;;;;;;;8.20;4.93;;;;;;;23.27;100.00;100959.88;20962655;28;20052;-80
2023/06/21 01:29:12;;;;;;;7.47;4.90;;;;;;;23.26;100.00;100955.41;20964582;28;20592;-80
2023/06/21 01:39:36;;;;;;;7.70;4.53;;;;;;;23.22;100.00;100957.34;21023541;28;20135;-81
2023/06/21 01:50:04;;;;;;;8.73;5.22;;;;;;;23.21;100.00;100969.03;20969134;28;20079;-81
2023/06/21 02:00:26;;;;;;;8.60;5.57;;;;;;;23.17;100.00;100964.66;21039827;28;20052;-81
2023/06/21 02:10:51;;;;;;;8.27;5.50;;;;;;;23.09;100.00;100957.78;20996396;28;20067;-81
2023/06/21 02:21:15;;;;;;;9.25;5.40;;;;;;;23.06;100.00;100964.16;20968918;28;20041;-80
2023/06/21 02:31:41;;;;;;;6.97;5.15;;;;;;;23.03;100.00;100969.66;20986398;28;20055;-81
2023/06/21 02:42:04;;;;;;;6.10;5.00;;;;;;;22.97;100.00;100973.41;20994842;28;20094;-81
2023/06/21 02:52:29;;;;;;;9.05;5.05;;;;;;;22.98;100.00;100972.47;21000747;28;20057;-81
2023/06/21 03:02:53;;;;;;;7.22;4.40;;;;;;;23.00;100.00;100970.63;20975117;28;20131;-82
2023/06/21 03:13:18;;;;;;;7.07;5.10;;;;;;;23.02;100.00;100960.69;20960826;28;20048;-81
2023/06/21 03:23:40;;;;;;;8.65;4.70;;;;;;;23.05;100.00;100951.59;20992893;28;20080;-80
2023/06/21 03:34:05;;;;;;;7.70;4.30;;;;;;;23.21;100.00;100950.19;20980134;28;20048;-80
2023/06/21 03:44:29;;;;;;;8.25;4.40;;;;;;;23.50;100.00;100957.28;21022372;28;20105;-81
2023/06/21 03:54:55;;;;;;;6.22;3.97;;;;;;;23.84;100.00;100960.56;20981017;28;20089;-80
2023/06/21 04:05:17;;;;;;;6.82;4.20;;;;;;;24.37;100.00;100962.25;21004027;28;20392;-80
2023/06/21 04:15:41;;;;;;;6.60;3.97;;;;;;;24.90;100.00;100957.47;20968753;28;20127;-80
2023/06/21 04:26:06;;;;;;;6.97;4.07;;;;;;;25.42;100.00;100962.50;20969720;28;20447;-79
2023/06/21 04:36:30;;;;;;;4.90;3.45;;;;;;;25.97;100.00;100976.34;20986344;28;20048;-80
2023/06/21 04:46:52;;;;;;;7.15;4.00;;;;;;;26.54;100.00;100986.38;20964801;28;20051;-81
2023/06/21 04:57:17;;;;;;;4.82;3.00;;;;;;;27.06;98.20;100992.03;20990142;28;20040;-82
2023/06/21 05:07:40;;;;;;;4.32;2.80;;;;;;;27.58;86.34;100998.47;20965080;28;20053;-82
2023/06/21 05:18:05;;;;;;;4.22;2.90;;;;;;;28.02;84.36;101004.31;20958345;28;20455;-81
2023/06/21 05:28:29;;;;;;;8.95;3.78;;;;;;;28.47;82.91;101017.28;20960449;28;20044;-81
2023/06/21 05:38:53;;;;;;;5.10;3.60;;;;;;;28.85;81.27;101025.19;20983212;28;20036;-81
2023/06/21 05:49:17;;;;;;;6.45;3.65;;;;;;;29.06;76.97;101010.38;20976696;28;20072;-81
2023/06/21 05:59:41;;;;;;;6.70;3.72;;;;;;;29.53;76.69;101031.28;21011614;28;20423;-80
2023/06/21 06:10:04;;;;;;;5.75;3.85;;;;;;;30.11;72.80;101034.13;20973368;28;20052;-80
2023/06/21 06:20:29;;;;;;;8.45;4.07;;;;;;;30.94;64.27;101030.69;21047103;28;20056;-80
2023/06/21 06:30:52;;;;;;;5.47;3.47;;;;;;;31.43;59.04;101027.47;21002085;28;20087;-81
2023/06/21 06:41:16;;;;;;;7.13;3.97;;;;;;;31.53;56.00;101024.03;21047531;28;20047;-80
2023/06/21 06:51:42;;;;;;;7.55;3.60;;;;;;;31.86;53.72;101026.34;21002182;28;20114;-81
2023/06/21 07:02:07;;;;;;;9.32;3.97;;;;;;;32.26;56.40;101027.19;21004912;28;20052;-81
2023/06/21 07:12:29;;;;;;;7.60;4.05;;;;;;;32.31;55.80;101022.28;21003893;28;20104;-80
2023/06/21 07:22:54;;;;;;;7.75;3.85;;;;;;;32.46;52.67;101031.25;20990055;28;20072;-80
2023/06/21 07:33:16;;;;;;;7.43;3.90;;;;;;;32.50;52.69;101034.63;21006595;28;20084;-81
2023/06/21 07:43:40;;;;;;;5.65;3.75;;;;;;;32.61;54.78;101038.38;21018237;28;20174;-81
2023/06/21 07:54:03;;;;;;;5.35;3.70;;;;;;;32.31;54.39;101027.75;21067300;28;20048;-81
2023/06/21 08:04:27;;;;;;;6.45;3.83;;;;;;;32.28;55.60;101030.72;21045493;28;20048;-82
2023/06/21 08:14:50;;;;;;;9.80;4.10;;;;;;;32.36;55.67;101052.03;21054961;28;20143;-81
2023/06/21 08:25:14;;;;;;;7.82;4.18;;;;;;;32.44;58.84;101030.47;21014525;28;20080;-80
2023/06/21 08:35:37;;;;;;;7.05;4.07;;;;;;;32.39;59.98;101025.34;20975045;28;20056;-79
2023/06/21 08:46:05;;;;;;;5.10;3.80;;;;;;;32.51;58.05;101011.78;20902285;28;20490;-80
2023/06/21 08:56:34;;;;;;;7.30;3.78;;;;;;;32.91;54.82;101024.34;20928655;28;20044;-80
2023/06/21 09:06:59;;;;;;;9.18;3.80;;;;;;;33.40;51.32;101024.34;20996591;28;20068;-80
2023/06/21 09:17:24;;;;;;;6.10;3.80;;;;;;;33.59;49.97;101024.69;20943119;28;20048;-79
2023/06/21 09:27:48;;;;;;;7.18;4.00;;;;;;;33.70;47.75;101031.19;20986067;28;20072;-81
2023/06/21 09:38:24;;;;;;;7.10;4.50;;;;;;;33.91;50.32;101022.22;21014028;28;20135;-82
2023/06/21 09:48:49;;;;;;;6.60;4.15;;;;;;;34.20;50.76;101017.19;21040745;28;20048;-83
2023/06/21 09:59:16;;;;;;;7.75;4.05;;;;;;;34.42;50.96;101046.56;21083482;28;20097;-83
2023/06/21 10:09:40;;;;;;;8.65;3.55;;;;;;;33.97;48.29;101051.91;21045798;28;20429;-83
2023/06/21 10:20:05;;;;;;;5.25;3.65;;;;;;;33.66;52.05;101026.94;21038877;28;20056;-82
2023/06/21 10:30:30;;;;;;;10.47;4.13;;;;;;;33.67;56.07;101026.84;21064489;28;20118;-83
2023/06/21 10:40:54;;;;;;;5.35;3.53;;;;;;;33.70;52.82;101034.81;21055940;28;20052;-85
2023/06/21 10:51:20;;;;;;;7.80;3.33;;;;;;;33.21;51.93;101026.72;20980878;28;20091;-80
2023/06/21 11:01:43;;;;;;;7.00;3.10;;;;;;;33.71;49.67;101022.91;20985156;28;20037;-82
2023/06/21 11:12:09;;;;;;;9.45;3.20;;;;;;;34.19;48.82;101026.44;20966331;28;20042;-81
2023/06/21 11:22:34;;;;;;;6.47;3.55;;;;;;;33.71;48.49;101000.97;20944539;28;20123;-81
2023/06/21 11:32:58;;;;;;;9.02;3.25;;;;;;;32.89;51.12;100995.31;20964456;28;20052;-81
2023/06/21 11:43:21;;;;;;;8.57;3.28;;;;;;;32.97;49.83;100985.56;20952674;28;20049;-83
2023/06/21 11:53:47;;;;;;;6.70;2.72;;;;;;;32.56;50.42;100979.53;20945768;28;20045;-83
2023/06/21 12:04:09;;;;;;;;;;;;;;;32.53;50.68;100977.88;20949164;28;20179;-84
2023/06/21 12:14:36;;;;;;;6.70;2.78;;;;;;;32.50;49.61;100974.47;20985324;28;19966;-84
2023/06/21 12:24:58;;;;;;;8.93;2.95;;;;;;;33.01;48.86;100983.50;20919027;28;20102;-84
2023/06/21 12:35:22;;;;;;;5.70;2.75;;;;;;;33.32;46.05;100988.44;20906204;28;20107;-84
2023/06/21 12:45:46;;;;;;;7.15;3.38;;;;;;;33.17;47.01;100974.00;20890873;28;20088;-84
2023/06/21 12:56:11;;;;;;;6.32;3.30;;;;;;;33.44;46.58;100997.56;20959993;28;20047;-83
2023/06/21 13:06:34;;;;;;;4.20;2.58;;;;;;;33.27;44.80;100968.75;20970365;28;20522;-86
2023/06/21 13:16:58;;;;;;;5.78;2.63;;;;;;;33.52;41.75;100962.28;20992190;28;20070;-84
2023/06/21 13:27:21;;;;;;;4.00;2.20;;;;;;;33.45;39.98;100959.13;20994011;28;20052;-84
2023/06/21 13:37:45;;;;;;;5.53;2.70;;;;;;;33.19;39.51;100957.50;21027083;28;20050;-84
2023/06/21 13:48:11;;;;;;;4.97;2.50;;;;;;;32.93;42.05;100962.19;20988494;28;20048;-83
2023/06/21 13:58:35;;;;;;;3.90;2.40;;;;;;;32.57;41.71;100989.44;20999877;28;20126;-83
2023/06/21 14:08:57;;;;;;;7.82;2.83;;;;;;;32.61;40.84;100950.84;20999284;28;20049;-83
2023/06/21 14:19:22;;;;;;;6.57;2.80;;;;;;;32.60;41.37;100965.50;20980223;28;20071;-82
2023/06/21 14:29:47;;;;;;;6.90;2.28;;;;;;;32.43;41.49;100949.44;20987670;28;20049;-82
2023/06/21 14:40:16;;;;;;;6.00;2.60;;;;;;;32.71;42.85;100946.47;20978793;28;20043;-82
2023/06/21 14:50:38;;;;;;;6.38;2.40;;;;;;;32.41;42.92;100965.97;20955327;28;20207;-82
2023/06/21 15:01:03;;;;;;;6.18;2.70;;;;;;;32.14;44.06;100940.63;21001110;28;20054;-81
2023/06/21 15:11:27;;;;;;;6.35;2.30;;;;;;;31.69;43.16;100950.16;20996978;28;20048;-82
2023/06/21 15:21:51;;;;;;;5.80;2.47;;;;;;;30.83;43.56;100924.16;20975603;28;20059;-84
2023/06/21 15:32:14;;;;;;;8.07;2.75;;;;;;;30.36;46.17;100954.47;20973799;28;20076;-80
2023/06/21 15:42:39;;;;;;;6.93;2.53;;;;;;;29.60;48.89;100957.31;20998710;28;20419;-81
2023/06/21 15:53:01;;;;;;;6.20;2.58;;;;;;;28.81;56.91;100959.25;21003260;28;20059;-84
2023/06/21 16:03:25;;;;;;;6.13;2.92;;;;;;;28.41;63.83;100985.03;20982562;28;20047;-83
2023/06/21 16:13:48;;;;;;;6.13;2.80;;;;;;;28.20;69.71;100971.72;20975603;28;20184;-83
2023/06/21 16:24:15;;;;;;;7.40;3.17;;;;;;;27.98;74.16;100980.09;20968992;28;20395;-84
2023/06/21 16:34:45;;;;;;;7.53;3.15;;;;;;;27.70;81.40;100975.25;20998172;28;20076;-81
2023/06/21 16:45:10;;;;;;;8.82;3.72;;;;;;;27.43;88.21;100998.34;20982293;28;20060;-84
2023/06/21 16:55:33;;;;;;;8.27;3.67;;;;;;;27.15;94.97;101010.56;20959755;28;20044;-83
2023/06/21 17:06:01;;;;;;;12.10;4.75;;;;;;;26.93;98.34;100991.75;21007958;28;20080;-82
2023/06/21 17:16:23;;;;;;;;;;;;;;;26.65;100.00;101021.06;20982063;28;20056;-82
2023/06/21 17:26:47;;;;;;;9.45;3.63;;;;;;;26.48;100.00;101021.88;20960344;28;20368;-82
2023/06/21 17:37:10;;;;;;;8.77;3.72;;;;;;;26.19;100.00;101044.81;20969686;28;20044;-83
2023/06/21 17:47:35;;;;;;;10.10;3.85;;;;;;;26.16;100.00;101036.84;20964223;28;20074;-83
2023/06/21 17:57:57;;;;;;;8.27;3.60;;;;;;;25.94;100.00;101032.41;21083751;28;20044;-81
2023/06/21 18:08:21;;;;;;;9.60;3.42;;;;;;;25.83;100.00;101030.19;20989065;28;20143;-82
2023/06/21 18:18:44;;;;;;;7.90;3.25;;;;;;;25.72;100.00;101013.56;20997620;28;20143;-82
2023/06/21 18:29:08;;;;;;;10.63;4.78;;;;;;;25.59;100.00;101034.84;20998223;28;20048;-83
2023/06/21 18:39:31;;;;;;;7.97;3.60;;;;;;;25.46;100.00;101038.06;21032854;28;20044;-82
2023/06/21 18:49:55;;;;;;;9.85;3.85;;;;;;;25.34;100.00;101036.72;21038148;28;20044;-81
2023/06/21 19:00:13;;;;;;;12.38;4.15;;;;;;;25.26;100.00;101036.19;21073252;28;20045;-82
2023/06/21 19:10:37;;;;;;;11.43;3.80;;;;;;;25.14;100.00;101042.09;21035387;28;20052;-83
2023/06/21 19:20:59;;;;;;;9.10;4.47;;;;;;;25.06;100.00;101052.31;20978558;28;20094;-83
2023/06/21 19:31:24;;;;;;;12.73;5.00;;;;;;;24.93;100.00;101063.63;21040894;28;20098;-83
2023/06/21 19:41:46;;;;;;;13.13;4.20;;;;;;;24.93;100.00;101062.72;21061359;28;20048;-83
2023/06/21 19:52:11;;;;;;;7.10;3.58;;;;;;;24.82;100.00;101079.31;21001707;28;20485;-84
2023/06/21 20:02:33;;;;;;;10.60;4.30;;;;;;;24.80;100.00;101080.31;21019745;28;20109;-83
2023/06/21 20:12:58;;;;;;;11.05;4.97;;;;;;;24.70;100.00;101077.06;20996603;28;20048;-83
2023/06/21 20:23:21;;;;;;;10.85;4.78;;;;;;;24.60;100.00;101052.25;21070989;28;20059;-82
2023/06/21 20:33:45;;;;;;;10.20;4.72;;;;;;;24.56;100.00;101055.09;21024339;28;20551;-82
2023/06/21 20:44:08;;;;;;;11.13;4.90;;;;;;;24.50;100.00;101048.13;20959578;28;20505;-82
2023/06/21 20:54:32;;;;;;;10.50;4.53;;;;;;;24.32;100.00;101040.69;20965447;28;20052;-81
2023/06/21 21:04:55;;;;;;;9.98;4.40;;;;;;;24.27;100.00;101056.19;20981881;28;20093;-82
2023/06/21 21:15:20;;;;;;;10.98;5.00;;;;;;;24.29;100.00;101048.00;20956871;28;20057;-80
2023/06/21 21:25:43;;;;;;;9.63;4.88;;;;;;;24.16;100.00;101058.34;20992972;28;20060;-81
2023/06/21 21:36:08;;;;;;;13.50;4.70;;;;;;;24.05;100.00;101045.25;20977873;28;20045;-84
2023/06/21 21:46:31;;;;;;;7.90;4.25;;;;;;;23.96;100.00;101042.84;20972725;28;20640;-82
2023/06/21 21:56:55;;;;;;;11.80;5.13;;;;;;;23.88;100.00;101036.00;20958130;28;20102;-82
2023/06/21 22:06:57;;;;;;;9.05;4.55;;;;;;;23.86;100.00;101040.53;20969473;28;20048;-82
2023/06/21 22:17:23;;;;;;;9.20;4.82;;;;;;;23.84;100.00;101040.59;20981592;28;20044;-82
2023/06/21 22:27:46;;;;;;;7.50;4.43;;;;;;;23.76;100.00;101032.75;21015189;28;20139;-82
2023/06/21 22:38:10;;;;;;;9.65;4.63;;;;;;;23.67;100.00;101033.09;20984618;28;20077;-82
2023/06/21 22:48:33;;;;;;;10.13;4.25;;;;;;;23.62;100.00;101035.06;21029586;28;20081;-82
2023/06/21 22:58:58;;;;;;;9.23;4.63;;;;;;;23.70;100.00;101032.09;21061306;28;20097;-82
2023/06/21 23:09:22;;;;;;;11.18;4.88;;;;;;;23.65;100.00;101037.66;21018439;28;20052;-82
2023/06/21 23:19:50;;;;;;;8.93;4.85;;;;;;;23.65;100.00;101024.16;20993741;28;20045;-82
2023/06/21 23:30:18;;;;;;;9.10;4.25;;;;;;;23.59;100.00;101016.28;21008195;28;20135;-83
2023/06/21 23:40:43;;;;;;;9.18;4.88;;;;;;;23.55;100.00;101013.75;21003101;28;20048;-82
2023/06/21 23:51:07;;;;;;;11.20;4.43;;;;;;;23.52;100.00;100990.47;21000607;28;20053;-82
